Main page
METAR-TAF:

METAR-TAF

Airports :

Litchfield Municipal Airport

Litchfield, Illinois, United States

latitude: 39-09-44N, longitude: 089-40-28W, elevation: 689 ft

Current weather observation

The report was made 28 minutes ago, at 12:15 UTC
Wind 3 mph from the East/Northeast
Temperature 63°F
Humidity 82%
Pressure 29.94 in. Hg
Visibility: 10 miles
Broken clouds at a height of 6000 ft

METAR: K3LF 231215Z AUTO 06003KT 10SM BKN060 17/14 A2994 RMK AO2 T01680135

Time: 07:43 (12:43 UTC)


TAF: missing

Weather observations and forecasts of more than 4000 airports (METAR and TAF reports).

The available stations are represented by yellow and red dots on the map.

Hover mouse over dot to see the name of the station.

Then click to see weather observations and forecasts.

To change the map : click on the green buttons with a black cross to zoom in, on the green button with a dash to zoom out, or on the green arrows for adjacent maps.


METAR-TAF: